NKS1788 KLAS-KDTW
Flight info
| Callsign | NKS1788 |
|---|---|
| Flight time | N/A |
| Altitude | 37000 |
| Route | GIDGT3 TUKRR DVC GLD J146 IOW SAMPL HAYLL3 |
| Aircraft | A321/M-SDE3FGHIRWY/LB1 |
Departure
| Time | 2026-05-06 14:30 |
|---|---|
| Airport | Harry Reid International Airport (KLAS) |
Arrival
| Time | N/A |
|---|---|
| Airport | Detroit Metropolitan Wayne County Airport (KDTW) |
| Time | Latitude | Longitude | Altitude | Speed | Heading |
|---|---|---|---|---|---|
| 2026-05-06 13:51 | 36.08541 | -115.15495 | 2098 ft | 0 kts | 106° |
| 2026-05-06 14:16 | 36.08544 | -115.15509 | 2098 ft | 4 kts | 109° |
| 2026-05-06 14:16 | 36.08554 | -115.15540 | 2099 ft | 4 kts | 120° |
| 2026-05-06 14:17 | 36.08570 | -115.15566 | 2099 ft | 4 kts | 139° |
| 2026-05-06 14:17 | 36.08584 | -115.15578 | 2099 ft | 4 kts | 167° |
| 2026-05-06 14:17 | 36.08598 | -115.15579 | 2099 ft | 0 kts | 201° |
| 2026-05-06 14:20 | 36.08591 | -115.15582 | 2099 ft | 4 kts | 202° |
| 2026-05-06 14:20 | 36.08546 | -115.15606 | 2100 ft | 8 kts | 204° |
| 2026-05-06 14:20 | 36.08535 | -115.15612 | 2100 ft | 0 kts | 204° |
| 2026-05-06 14:22 | 36.08531 | -115.15614 | 2100 ft | 3 kts | 207° |
| 2026-05-06 14:22 | 36.08499 | -115.15661 | 2101 ft | 7 kts | 254° |
| 2026-05-06 14:23 | 36.08526 | -115.15707 | 2103 ft | 10 kts | 330° |
| 2026-05-06 14:23 | 36.08595 | -115.15748 | 2104 ft | 12 kts | 335° |
| 2026-05-06 14:23 | 36.08670 | -115.15789 | 2106 ft | 12 kts | 346° |
| 2026-05-06 14:23 | 36.08760 | -115.15761 | 2105 ft | 16 kts | 24° |
| 2026-05-06 14:24 | 36.08869 | -115.15699 | 2103 ft | 19 kts | 25° |
| 2026-05-06 14:24 | 36.08996 | -115.15626 | 2101 ft | 21 kts | 25° |
| 2026-05-06 14:24 | 36.09137 | -115.15544 | 2099 ft | 23 kts | 25° |
| 2026-05-06 14:24 | 36.09289 | -115.15457 | 2098 ft | 25 kts | 25° |
| 2026-05-06 14:25 | 36.09448 | -115.15366 | 2097 ft | 26 kts | 25° |
| 2026-05-06 14:25 | 36.09590 | -115.15285 | 2097 ft | 21 kts | 24° |
| 2026-05-06 14:25 | 36.09707 | -115.15217 | 2097 ft | 12 kts | 25° |
| 2026-05-06 14:25 | 36.09772 | -115.15212 | 2096 ft | 7 kts | 338° |
| 2026-05-06 14:26 | 36.09806 | -115.15267 | 2095 ft | 10 kts | 296° |
| 2026-05-06 14:26 | 36.09844 | -115.15371 | 2093 ft | 18 kts | 294° |
| 2026-05-06 14:26 | 36.09896 | -115.15506 | 2096 ft | 10 kts | 295° |
| 2026-05-06 14:26 | 36.09929 | -115.15591 | 2099 ft | 13 kts | 296° |
| 2026-05-06 14:27 | 36.09942 | -115.15655 | 2100 ft | 4 kts | 243° |
| 2026-05-06 14:27 | 36.09920 | -115.15672 | 2101 ft | 4 kts | 206° |
| 2026-05-06 14:27 | 36.09917 | -115.15674 | 2101 ft | 0 kts | 205° |
| 2026-05-06 14:29 | 36.09858 | -115.15707 | 2102 ft | 39 kts | 205° |
| 2026-05-06 14:29 | 36.09382 | -115.15980 | 2110 ft | 109 kts | 205° |
| 2026-05-06 14:29 | 36.08517 | -115.16471 | 2164 ft | 159 kts | 204° |
| 2026-05-06 14:30 | 36.07521 | -115.17029 | 2885 ft | 156 kts | 205° |
| 2026-05-06 14:30 | 36.06605 | -115.17754 | 3530 ft | 162 kts | 228° |
| 2026-05-06 14:30 | 36.06191 | -115.19117 | 3745 ft | 186 kts | 271° |
| 2026-05-06 14:30 | 36.06438 | -115.20767 | 4050 ft | 205 kts | 282° |
| 2026-05-06 14:31 | 36.06753 | -115.22554 | 4377 ft | 219 kts | 282° |
| 2026-05-06 14:31 | 36.07062 | -115.24440 | 4905 ft | 229 kts | 282° |
| 2026-05-06 14:31 | 36.07456 | -115.26356 | 5618 ft | 232 kts | 296° |
| 2026-05-06 14:31 | 36.08409 | -115.27943 | 6278 ft | 238 kts | 323° |
| 2026-05-06 14:32 | 36.09923 | -115.28809 | 6831 ft | 246 kts | 346° |
| 2026-05-06 14:32 | 36.11577 | -115.29301 | 7567 ft | 249 kts | 347° |
| 2026-05-06 14:32 | 36.13287 | -115.29639 | 8322 ft | 251 kts | 2° |
| 2026-05-06 14:32 | 36.14985 | -115.29144 | 9091 ft | 254 kts | 26° |
| 2026-05-06 14:33 | 36.16422 | -115.27744 | 9515 ft | 276 kts | 51° |
| 2026-05-06 14:33 | 36.17387 | -115.25647 | 10153 ft | 285 kts | 64° |
| 2026-05-06 14:33 | 36.18137 | -115.23299 | 10491 ft | 305 kts | 66° |
| 2026-05-06 14:33 | 36.18931 | -115.20755 | 10678 ft | 329 kts | 69° |
| 2026-05-06 14:34 | 36.19500 | -115.17904 | 10830 ft | 353 kts | 79° |
| 2026-05-06 14:34 | 36.19627 | -115.14808 | 11294 ft | 365 kts | 88° |
| 2026-05-06 14:34 | 36.19615 | -115.11646 | 11969 ft | 369 kts | 87° |
| 2026-05-06 14:34 | 36.19613 | -115.08454 | 12647 ft | 373 kts | 87° |
| 2026-05-06 14:35 | 36.19614 | -115.05234 | 13356 ft | 376 kts | 87° |
| 2026-05-06 14:35 | 36.19618 | -115.01984 | 14032 ft | 379 kts | 87° |
| 2026-05-06 14:35 | 36.19622 | -114.98706 | 14684 ft | 382 kts | 87° |
| 2026-05-06 14:35 | 36.19624 | -114.95402 | 15330 ft | 385 kts | 86° |
| 2026-05-06 14:36 | 36.19624 | -114.92072 | 15987 ft | 388 kts | 86° |
| 2026-05-06 14:36 | 36.19620 | -114.88719 | 16631 ft | 391 kts | 86° |
| 2026-05-06 14:36 | 36.19617 | -114.85345 | 17260 ft | 394 kts | 86° |
| 2026-05-06 14:36 | 36.19616 | -114.81937 | 17879 ft | 397 kts | 86° |
| 2026-05-06 14:37 | 36.19614 | -114.78504 | 18461 ft | 401 kts | 86° |
| 2026-05-06 14:37 | 36.19608 | -114.75046 | 18989 ft | 403 kts | 86° |
| 2026-05-06 14:37 | 36.19598 | -114.71609 | 19508 ft | 406 kts | 86° |
| 2026-05-06 14:37 | 36.19585 | -114.68105 | 20016 ft | 409 kts | 86° |
| 2026-05-06 14:38 | 36.19573 | -114.64574 | 20523 ft | 412 kts | 86° |
| 2026-05-06 14:38 | 36.19562 | -114.61021 | 21007 ft | 415 kts | 86° |
| 2026-05-06 14:38 | 36.19554 | -114.57436 | 21476 ft | 417 kts | 86° |
| 2026-05-06 14:38 | 36.19547 | -114.53841 | 21954 ft | 419 kts | 86° |
| 2026-05-06 14:39 | 36.19540 | -114.50218 | 22431 ft | 422 kts | 86° |
| 2026-05-06 14:39 | 36.19530 | -114.46573 | 22887 ft | 425 kts | 86° |
| 2026-05-06 14:39 | 36.19517 | -114.42905 | 23362 ft | 427 kts | 86° |
| 2026-05-06 14:39 | 36.19502 | -114.39214 | 23766 ft | 430 kts | 86° |
| 2026-05-06 14:40 | 36.19485 | -114.35504 | 24153 ft | 432 kts | 86° |
| 2026-05-06 14:40 | 36.19465 | -114.31773 | 24553 ft | 434 kts | 86° |
| 2026-05-06 14:40 | 36.19442 | -114.28025 | 24962 ft | 436 kts | 86° |
| 2026-05-06 14:40 | 36.19465 | -114.24271 | 25357 ft | 435 kts | 82° |
| 2026-05-06 14:41 | 36.19836 | -114.20562 | 25743 ft | 434 kts | 77° |
| 2026-05-06 14:41 | 36.20288 | -114.16864 | 26153 ft | 435 kts | 77° |
| 2026-05-06 14:41 | 36.20738 | -114.13156 | 26556 ft | 436 kts | 77° |
| 2026-05-06 14:41 | 36.21180 | -114.09478 | 26915 ft | 438 kts | 77° |
| 2026-05-06 14:42 | 36.21625 | -114.05739 | 27302 ft | 441 kts | 77° |
| 2026-05-06 14:42 | 36.22070 | -114.01972 | 27678 ft | 443 kts | 77° |
| 2026-05-06 14:42 | 36.22514 | -113.98197 | 28056 ft | 444 kts | 77° |
| 2026-05-06 14:42 | 36.22955 | -113.94417 | 28567 ft | 442 kts | 77° |
| 2026-05-06 14:43 | 36.23392 | -113.90658 | 29125 ft | 440 kts | 77° |
| 2026-05-06 14:43 | 36.23825 | -113.86922 | 29689 ft | 437 kts | 77° |
| 2026-05-06 14:43 | 36.24257 | -113.83209 | 30177 ft | 435 kts | 77° |
| 2026-05-06 14:43 | 36.24689 | -113.79509 | 30615 ft | 433 kts | 76° |
| 2026-05-06 14:44 | 36.25119 | -113.75830 | 31056 ft | 431 kts | 76° |
| 2026-05-06 14:44 | 36.25548 | -113.72163 | 31498 ft | 430 kts | 76° |
| 2026-05-06 14:44 | 36.25974 | -113.68504 | 31922 ft | 428 kts | 76° |
| 2026-05-06 14:45 | 36.26817 | -113.61227 | 32795 ft | 425 kts | 76° |
| 2026-05-06 14:45 | 36.27234 | -113.57607 | 33217 ft | 423 kts | 76° |
| 2026-05-06 14:45 | 36.27649 | -113.54002 | 33632 ft | 422 kts | 76° |
| 2026-05-06 14:45 | 36.28060 | -113.50409 | 34043 ft | 421 kts | 76° |
| 2026-05-06 14:46 | 36.28462 | -113.46872 | 34348 ft | 420 kts | 76° |
| 2026-05-06 14:46 | 36.28869 | -113.43279 | 34621 ft | 421 kts | 76° |
| 2026-05-06 14:46 | 36.29278 | -113.39676 | 34857 ft | 424 kts | 77° |
| 2026-05-06 14:46 | 36.29690 | -113.36048 | 35091 ft | 426 kts | 77° |
| 2026-05-06 14:47 | 36.30103 | -113.32410 | 35336 ft | 427 kts | 77° |
| 2026-05-06 14:47 | 36.30516 | -113.28751 | 35566 ft | 429 kts | 77° |
| 2026-05-06 14:47 | 36.30938 | -113.25081 | 35782 ft | 431 kts | 76° |
| 2026-05-06 14:47 | 36.31651 | -113.21486 | 35975 ft | 429 kts | 68° |
| 2026-05-06 14:48 | 36.32766 | -113.18066 | 36188 ft | 427 kts | 63° |
| 2026-05-06 14:48 | 36.33967 | -113.14694 | 36474 ft | 427 kts | 63° |
| 2026-05-06 14:48 | 36.35161 | -113.11320 | 36732 ft | 428 kts | 63° |
| 2026-05-06 14:48 | 36.36357 | -113.07929 | 36964 ft | 430 kts | 63° |
| 2026-05-06 14:49 | 36.37556 | -113.04518 | 37025 ft | 434 kts | 63° |
| 2026-05-06 14:49 | 36.39980 | -112.97599 | 37028 ft | 438 kts | 63° |
| 2026-05-06 14:50 | 36.42415 | -112.90656 | 37038 ft | 439 kts | 64° |
| 2026-05-06 14:50 | 36.44845 | -112.83699 | 37041 ft | 439 kts | 64° |
| 2026-05-06 14:51 | 36.47276 | -112.76740 | 37065 ft | 440 kts | 64° |
| 2026-05-06 14:51 | 36.49722 | -112.69741 | 37048 ft | 442 kts | 64° |
| 2026-05-06 14:52 | 36.52146 | -112.62760 | 37045 ft | 443 kts | 64° |
| 2026-05-06 14:52 | 36.54586 | -112.55706 | 37053 ft | 445 kts | 64° |
| 2026-05-06 14:53 | 36.57028 | -112.48636 | 37042 ft | 445 kts | 64° |
| 2026-05-06 14:53 | 36.59467 | -112.41548 | 37053 ft | 446 kts | 64° |
| 2026-05-06 14:54 | 36.61915 | -112.34454 | 37048 ft | 447 kts | 63° |
| 2026-05-06 14:54 | 36.64360 | -112.27337 | 37028 ft | 447 kts | 64° |
| 2026-05-06 14:55 | 36.66803 | -112.20203 | 37033 ft | 448 kts | 64° |
| 2026-05-06 14:55 | 36.69243 | -112.13067 | 37017 ft | 448 kts | 63° |
| 2026-05-06 14:56 | 36.71684 | -112.05903 | 36990 ft | 450 kts | 64° |
| 2026-05-06 14:56 | 36.74125 | -111.98710 | 36986 ft | 451 kts | 64° |
| 2026-05-06 14:57 | 36.76570 | -111.91491 | 36957 ft | 452 kts | 64° |
| 2026-05-06 14:57 | 36.79015 | -111.84262 | 36958 ft | 452 kts | 64° |
| 2026-05-06 14:58 | 36.81439 | -111.77069 | 36951 ft | 453 kts | 64° |
| 2026-05-06 14:58 | 36.83895 | -111.69802 | 36929 ft | 455 kts | 64° |
| 2026-05-06 14:59 | 36.86368 | -111.62522 | 36922 ft | 456 kts | 63° |
| 2026-05-06 14:59 | 36.88537 | -111.56525 | 36947 ft | 455 kts | 62° |
| 2026-05-06 14:59 | 36.89871 | -111.52943 | 37092 ft | 454 kts | 62° |
| 2026-05-06 15:00 | 36.91206 | -111.49373 | 37090 ft | 453 kts | 62° |
| 2026-05-06 15:00 | 36.93858 | -111.42225 | 37083 ft | 453 kts | 62° |
| 2026-05-06 15:01 | 36.96468 | -111.35057 | 37085 ft | 453 kts | 62° |
| 2026-05-06 15:01 | 36.99054 | -111.27886 | 37049 ft | 452 kts | 62° |
| 2026-05-06 15:02 | 37.01640 | -111.20721 | 37014 ft | 452 kts | 62° |
| 2026-05-06 15:02 | 37.04224 | -111.13560 | 36993 ft | 451 kts | 63° |
| 2026-05-06 15:03 | 37.06813 | -111.06380 | 36942 ft | 453 kts | 63° |
| 2026-05-06 15:03 | 37.09406 | -110.99172 | 36921 ft | 454 kts | 63° |
| 2026-05-06 15:04 | 37.11997 | -110.91944 | 36913 ft | 455 kts | 63° |
| 2026-05-06 15:04 | 37.14573 | -110.84749 | 36917 ft | 456 kts | 63° |
| 2026-05-06 15:05 | 37.17159 | -110.77489 | 36911 ft | 457 kts | 63° |
| 2026-05-06 15:05 | 37.19751 | -110.70206 | 36885 ft | 458 kts | 63° |
| 2026-05-06 15:06 | 37.22352 | -110.62891 | 36885 ft | 459 kts | 63° |
| 2026-05-06 15:06 | 37.24957 | -110.55567 | 36882 ft | 460 kts | 63° |
| 2026-05-06 15:07 | 37.27552 | -110.48221 | 36886 ft | 460 kts | 63° |
| 2026-05-06 15:07 | 37.30142 | -110.40853 | 36891 ft | 461 kts | 63° |
| 2026-05-06 15:08 | 37.32744 | -110.33471 | 36890 ft | 463 kts | 63° |
| 2026-05-06 15:08 | 37.35342 | -110.26062 | 36913 ft | 463 kts | 63° |
| 2026-05-06 15:09 | 37.37906 | -110.18708 | 36921 ft | 462 kts | 63° |
| 2026-05-06 15:09 | 37.40480 | -110.11313 | 36916 ft | 462 kts | 63° |
| 2026-05-06 15:10 | 37.43061 | -110.03899 | 36900 ft | 463 kts | 63° |
| 2026-05-06 15:10 | 37.45645 | -109.96463 | 36899 ft | 464 kts | 63° |
| 2026-05-06 15:11 | 37.48229 | -109.89021 | 36903 ft | 464 kts | 63° |
| 2026-05-06 15:11 | 37.50808 | -109.81561 | 36906 ft | 465 kts | 63° |
| 2026-05-06 15:12 | 37.53387 | -109.74091 | 36906 ft | 466 kts | 63° |
| 2026-05-06 15:12 | 37.55971 | -109.66583 | 37020 ft | 468 kts | 63° |
| 2026-05-06 15:13 | 37.58545 | -109.59048 | 37051 ft | 468 kts | 63° |
| 2026-05-06 15:13 | 37.61127 | -109.51503 | 37053 ft | 469 kts | 63° |
| 2026-05-06 15:14 | 37.63709 | -109.43940 | 37073 ft | 470 kts | 63° |
| 2026-05-06 15:14 | 37.66287 | -109.36356 | 37043 ft | 471 kts | 63° |
| 2026-05-06 15:15 | 37.68869 | -109.28748 | 37005 ft | 472 kts | 63° |
| 2026-05-06 15:15 | 37.71434 | -109.21176 | 36973 ft | 472 kts | 63° |
| 2026-05-06 15:16 | 37.74017 | -109.13547 | 36940 ft | 472 kts | 63° |
| 2026-05-06 15:16 | 37.76593 | -109.05899 | 36916 ft | 474 kts | 63° |
| 2026-05-06 15:17 | 37.79171 | -108.98207 | 36932 ft | 476 kts | 63° |
| 2026-05-06 15:17 | 37.81573 | -108.90401 | 36932 ft | 478 kts | 68° |
| 2026-05-06 15:18 | 37.83605 | -108.82397 | 36930 ft | 478 kts | 69° |
| 2026-05-06 15:18 | 37.85624 | -108.74386 | 36943 ft | 478 kts | 69° |
| 2026-05-06 15:19 | 37.87642 | -108.66352 | 36925 ft | 479 kts | 69° |
| 2026-05-06 15:19 | 37.89662 | -108.58299 | 36921 ft | 480 kts | 69° |
| 2026-05-06 15:20 | 37.91683 | -108.50232 | 36922 ft | 481 kts | 69° |
| 2026-05-06 15:20 | 37.93687 | -108.42195 | 36951 ft | 482 kts | 69° |
| 2026-05-06 15:21 | 37.95708 | -108.34081 | 36937 ft | 484 kts | 69° |
| 2026-05-06 15:21 | 37.97726 | -108.25930 | 36925 ft | 486 kts | 69° |
| 2026-05-06 15:22 | 37.99743 | -108.17754 | 36914 ft | 486 kts | 69° |
| 2026-05-06 15:22 | 38.01760 | -108.09562 | 36931 ft | 487 kts | 69° |
| 2026-05-06 15:23 | 38.03776 | -108.01354 | 36938 ft | 487 kts | 69° |
| 2026-05-06 15:23 | 38.05778 | -107.93142 | 36941 ft | 487 kts | 70° |
| 2026-05-06 15:24 | 38.07783 | -107.84932 | 36944 ft | 487 kts | 69° |
| 2026-05-06 15:24 | 38.09783 | -107.76714 | 36946 ft | 488 kts | 70° |
| 2026-05-06 15:25 | 38.11761 | -107.68532 | 36946 ft | 488 kts | 70° |
| 2026-05-06 15:25 | 38.13752 | -107.60282 | 36934 ft | 489 kts | 70° |
| 2026-05-06 15:26 | 38.15743 | -107.52013 | 36932 ft | 490 kts | 70° |
| 2026-05-06 15:26 | 38.17719 | -107.43729 | 36929 ft | 490 kts | 70° |
| 2026-05-06 15:27 | 38.19692 | -107.35436 | 36925 ft | 492 kts | 70° |
| 2026-05-06 15:27 | 38.21678 | -107.27099 | 36898 ft | 493 kts | 70° |
| 2026-05-06 15:28 | 38.23669 | -107.18728 | 36893 ft | 495 kts | 71° |
| 2026-05-06 15:28 | 38.25647 | -107.10338 | 36925 ft | 496 kts | 71° |
| 2026-05-06 15:29 | 38.27612 | -107.01979 | 36950 ft | 497 kts | 71° |
| 2026-05-06 15:29 | 38.29593 | -106.93545 | 36944 ft | 498 kts | 71° |
| 2026-05-06 15:30 | 38.31577 | -106.85077 | 36881 ft | 500 kts | 71° |
| 2026-05-06 15:30 | 38.33552 | -106.76575 | 36892 ft | 501 kts | 71° |
| 2026-05-06 15:31 | 38.35523 | -106.68051 | 36903 ft | 502 kts | 71° |
| 2026-05-06 15:31 | 38.37497 | -106.59508 | 36891 ft | 503 kts | 71° |
| 2026-05-06 15:32 | 38.40455 | -106.46638 | 36920 ft | 506 kts | 72° |
| 2026-05-06 15:32 | 38.42433 | -106.38024 | 36995 ft | 506 kts | 71° |
| 2026-05-06 15:33 | 38.44388 | -106.29470 | 37041 ft | 505 kts | 72° |
| 2026-05-06 15:33 | 38.46339 | -106.20863 | 37061 ft | 505 kts | 72° |
| 2026-05-06 15:34 | 38.48289 | -106.12252 | 37087 ft | 505 kts | 72° |
| 2026-05-06 15:34 | 38.50230 | -106.03628 | 37082 ft | 505 kts | 72° |
| 2026-05-06 15:35 | 38.52164 | -105.94998 | 37092 ft | 506 kts | 72° |
| 2026-05-06 15:35 | 38.53783 | -105.87810 | 37067 ft | 507 kts | 72° |